Time;durP1;ratioP1;P1;durP2;ratioP2;P2;SDS_P1;SDS_P2;PMS_P1;PMS_P2;Temp;Humidity;BMP_temperature;BMP_pressure;BME280_temperature;BME280_humidity;BME280_pressure;Samples;Min_cycle;Max_cycle;Signal;HPM_P1;HPM_P2
2021/05/28 00:00:24;;;;;;;;;;;19.40;59.10;;;;;;5035616;28;20386;-59
2021/05/28 00:02:49;;;;;;;;;;;19.40;59.10;;;;;;5039979;28;19920;-60
2021/05/28 00:05:15;;;;;;;;;;;19.40;59.10;;;;;;5028838;28;19921;-58
2021/05/28 00:07:40;;;;;;;;;;;19.40;59.10;;;;;;5034269;28;20031;-59
2021/05/28 00:10:06;;;;;;;;;;;19.40;59.10;;;;;;5035435;28;19921;-58
2021/05/28 00:12:31;;;;;;;;;;;19.40;59.10;;;;;;5035108;28;20459;-57
2021/05/28 00:14:57;;;;;;;;;;;19.40;59.10;;;;;;5030718;28;19917;-57
2021/05/28 00:17:22;;;;;;;;;;;19.40;59.10;;;;;;5031268;28;19972;-56
2021/05/28 00:19:48;;;;;;;;;;;19.40;59.10;;;;;;5040424;28;20161;-56
2021/05/28 00:22:13;;;;;;;;;;;19.40;59.00;;;;;;5041504;28;19917;-56
2021/05/28 00:24:38;;;;;;;;;;;19.40;59.00;;;;;;5017398;28;19917;-60
2021/05/28 00:27:04;;;;;;;;;;;19.40;59.00;;;;;;5028389;28;20640;-57
2021/05/28 00:29:30;;;;;;;;;;;19.40;59.00;;;;;;5016797;28;19917;-57
2021/05/28 00:31:55;;;;;;;;;;;19.40;59.00;;;;;;5021664;28;19920;-58
2021/05/28 00:34:20;;;;;;;;;;;19.40;59.00;;;;;;5030310;28;19918;-57
2021/05/28 00:36:46;;;;;;;;;;;19.40;59.00;;;;;;5034699;28;19928;-57
2021/05/28 00:39:11;;;;;;;;;;;19.40;59.00;;;;;;5032135;28;19928;-59
2021/05/28 00:41:37;;;;;;;;;;;19.30;58.90;;;;;;5018704;28;19997;-57
2021/05/28 00:44:02;;;;;;;;;;;19.40;59.00;;;;;;5023226;28;19917;-55
2021/05/28 00:46:28;;;;;;;;;;;19.30;58.90;;;;;;5023560;28;19925;-59
2021/05/28 00:48:54;;;;;;;;;;;19.40;58.90;;;;;;5027757;28;19944;-56
2021/05/28 00:51:20;;;;;;;;;;;19.30;58.90;;;;;;5034534;28;19917;-59
2021/05/28 00:53:46;;;;;;;;;;;19.30;58.90;;;;;;5030042;28;19962;-59
2021/05/28 00:56:11;;;;;;;;;;;19.30;58.90;;;;;;5023139;28;19925;-54
2021/05/28 00:58:37;;;;;;;;;;;19.30;58.90;;;;;;5012215;28;19917;-59
2021/05/28 01:01:02;;;;;;;;;;;19.30;58.90;;;;;;5018813;28;19948;-55
2021/05/28 01:03:27;;;;;;;;;;;19.30;58.90;;;;;;5037602;28;19928;-64
2021/05/28 01:05:53;;;;;;;;;;;19.30;58.90;;;;;;5040518;28;20370;-56
2021/05/28 01:08:18;;;;;;;;;;;19.30;58.90;;;;;;5040496;28;19917;-59
2021/05/28 01:10:44;;;;;;;;;;;19.30;58.90;;;;;;5039184;28;19917;-60
2021/05/28 01:13:10;;;;;;;;;;;19.30;58.90;;;;;;5022613;28;19937;-60
2021/05/28 01:15:35;;;;;;;;;;;19.30;58.90;;;;;;5038819;28;19979;-60
2021/05/28 01:18:01;;;;;;;;;;;19.30;58.90;;;;;;5044030;28;19952;-57
2021/05/28 01:20:26;;;;;;;;;;;19.30;58.90;;;;;;5038015;28;19928;-56
2021/05/28 01:22:56;;;;;;;;;;;19.30;58.90;;;;;;5045198;28;19928;-58
2021/05/28 01:25:21;;;;;;;;;;;19.30;58.90;;;;;;5041724;28;19986;-59
2021/05/28 01:27:47;;;;;;;;;;;19.30;58.90;;;;;;5039105;28;20434;-57
2021/05/28 01:30:13;;;;;;;;;;;19.30;58.80;;;;;;5040016;28;19940;-58
2021/05/28 01:32:38;;;;;;;;;;;19.30;58.90;;;;;;5017828;28;19951;-58
2021/05/28 01:35:04;;;;;;;;;;;19.30;58.80;;;;;;5034590;28;20590;-60
2021/05/28 01:37:30;;;;;;;;;;;19.30;58.80;;;;;;5039670;28;19925;-57
2021/05/28 01:39:55;;;;;;;;;;;19.30;58.80;;;;;;5042796;28;20824;-55
2021/05/28 01:42:21;;;;;;;;;;;19.30;58.80;;;;;;5036497;28;20044;-57
2021/05/28 01:44:46;;;;;;;;;;;19.30;58.80;;;;;;5039044;28;19952;-59
2021/05/28 01:47:12;;;;;;;;;;;19.30;58.90;;;;;;5039423;28;20616;-57
2021/05/28 01:49:40;;;;;;;;;;;19.30;58.80;;;;;;5035929;28;19997;-57
2021/05/28 01:52:06;;;;;;;;;;;19.30;58.90;;;;;;5036123;28;20429;-57
2021/05/28 01:54:34;;;;;;;;;;;19.20;58.80;;;;;;5041691;28;19963;-57
2021/05/28 01:57:01;;;;;;;;;;;19.30;58.90;;;;;;5016983;28;19952;-55
2021/05/28 01:59:26;;;;;;;;;;;19.30;58.80;;;;;;5021622;28;20416;-57
2021/05/28 02:01:52;;;;;;;;;;;19.30;58.80;;;;;;5042123;28;19932;-57
2021/05/28 02:04:18;;;;;;;;;;;19.30;58.80;;;;;;5035359;28;20458;-56
2021/05/28 02:06:43;;;;;;;;;;;19.20;58.80;;;;;;5041973;28;20468;-56
2021/05/28 02:09:09;;;;;;;;;;;19.20;58.80;;;;;;5036574;28;19917;-56
2021/05/28 02:11:34;;;;;;;;;;;19.20;58.80;;;;;;5035649;28;20154;-58
2021/05/28 02:14:00;;;;;;;;;;;19.20;58.80;;;;;;5035602;28;19971;-59
2021/05/28 02:16:25;;;;;;;;;;;19.20;58.80;;;;;;5042742;28;19917;-59
2021/05/28 02:18:50;;;;;;;;;;;19.20;58.80;;;;;;5018057;28;20370;-57
2021/05/28 02:21:16;;;;;;;;;;;19.20;58.80;;;;;;5042423;28;19952;-58
2021/05/28 02:23:41;;;;;;;;;;;19.20;58.80;;;;;;5023244;28;19970;-59
2021/05/28 02:26:07;;;;;;;;;;;19.20;58.80;;;;;;5017419;28;19917;-55
2021/05/28 02:28:32;;;;;;;;;;;19.20;58.80;;;;;;5026673;28;19917;-56
2021/05/28 02:30:58;;;;;;;;;;;19.20;58.90;;;;;;5027912;28;20440;-59
2021/05/28 02:33:23;;;;;;;;;;;19.20;58.90;;;;;;5034521;28;19917;-55
2021/05/28 02:35:49;;;;;;;;;;;19.20;58.80;;;;;;5036725;28;19916;-58
2021/05/28 02:38:14;;;;;;;;;;;19.20;58.80;;;;;;5039408;28;19969;-55
2021/05/28 02:40:40;;;;;;;;;;;19.20;58.90;;;;;;5039789;28;20361;-59
2021/05/28 02:43:05;;;;;;;;;;;19.20;58.90;;;;;;5036468;28;19925;-58
2021/05/28 02:45:30;;;;;;;;;;;19.20;58.90;;;;;;5033693;28;19928;-55
2021/05/28 02:47:58;;;;;;;;;;;19.20;58.90;;;;;;5039954;28;20570;-58
2021/05/28 02:50:24;;;;;;;;;;;19.20;58.90;;;;;;5036993;28;19916;-58
2021/05/28 02:52:49;;;;;;;;;;;19.20;58.90;;;;;;5041867;28;19921;-57
2021/05/28 02:55:14;;;;;;;;;;;19.20;58.90;;;;;;5041241;28;19917;-58
2021/05/28 02:57:40;;;;;;;;;;;19.20;58.80;;;;;;5030482;28;20173;-58
2021/05/28 03:00:06;;;;;;;;;;;19.20;58.80;;;;;;5041919;28;20008;-59
2021/05/28 03:02:31;;;;;;;;;;;19.20;58.90;;;;;;5036047;28;19979;-60
2021/05/28 03:04:56;;;;;;;;;;;19.20;58.90;;;;;;5035405;28;19917;-60
2021/05/28 03:07:22;;;;;;;;;;;19.10;58.80;;;;;;5040974;28;20027;-59
2021/05/28 03:09:47;;;;;;;;;;;19.10;58.80;;;;;;5031210;28;19921;-56
2021/05/28 03:12:13;;;;;;;;;;;19.20;58.90;;;;;;5038564;28;19952;-57
2021/05/28 03:14:38;;;;;;;;;;;19.10;58.80;;;;;;5025797;28;19921;-60
2021/05/28 03:17:04;;;;;;;;;;;19.10;58.90;;;;;;5017414;28;19943;-55
2021/05/28 03:19:34;;;;;;;;;;;19.20;58.90;;;;;;5040279;28;20455;-57
2021/05/28 03:24:44;;;;;;;;;;;19.10;58.90;;;;;;5035976;28;19966;-58
2021/05/28 03:27:10;;;;;;;;;;;19.10;58.80;;;;;;5036912;28;19921;-55
2021/05/28 03:29:36;;;;;;;;;;;19.10;58.80;;;;;;5032568;28;20305;-58
2021/05/28 03:32:01;;;;;;;;;;;19.10;58.80;;;;;;5037675;28;19917;-59
2021/05/28 03:34:26;;;;;;;;;;;19.10;58.80;;;;;;5037792;28;19916;-58
2021/05/28 03:36:52;;;;;;;;;;;19.10;58.80;;;;;;5030979;28;20030;-57
2021/05/28 03:39:17;;;;;;;;;;;19.10;58.80;;;;;;5036236;28;19942;-60
2021/05/28 03:41:43;;;;;;;;;;;19.10;58.80;;;;;;5012687;28;19925;-58
2021/05/28 03:44:08;;;;;;;;;;;19.10;58.80;;;;;;5034707;28;19974;-59
2021/05/28 03:46:34;;;;;;;;;;;19.10;58.80;;;;;;5034848;28;20424;-59
2021/05/28 03:48:59;;;;;;;;;;;19.10;58.90;;;;;;5035857;28;19966;-58
2021/05/28 03:51:25;;;;;;;;;;;19.10;58.90;;;;;;5034837;28;20378;-55
2021/05/28 03:53:50;;;;;;;;;;;19.10;58.90;;;;;;5025278;28;19948;-60
2021/05/28 03:56:15;;;;;;;;;;;19.10;58.90;;;;;;5019029;28;20024;-59
2021/05/28 03:58:41;;;;;;;;;;;19.10;58.90;;;;;;5026177;28;19917;-58
2021/05/28 04:01:07;;;;;;;;;;;19.10;58.90;;;;;;5034545;28;19921;-58
2021/05/28 04:03:32;;;;;;;;;;;19.10;58.90;;;;;;5034384;28;19916;-58
2021/05/28 04:05:58;;;;;;;;;;;19.10;58.90;;;;;;5031214;28;20414;-55
2021/05/28 04:08:23;;;;;;;;;;;19.10;58.90;;;;;;5032405;28;19963;-53
2021/05/28 04:10:49;;;;;;;;;;;19.10;58.90;;;;;;5038320;28;19948;-58
2021/05/28 04:13:14;;;;;;;;;;;19.10;58.90;;;;;;5027435;28;19945;-52
2021/05/28 04:15:40;;;;;;;;;;;19.00;58.90;;;;;;5036893;28;20077;-54
2021/05/28 04:18:05;;;;;;;;;;;19.10;59.00;;;;;;5035855;22;20353;-57
2021/05/28 04:20:31;;;;;;;;;;;19.10;59.00;;;;;;5010373;28;19932;-57
2021/05/28 04:22:56;;;;;;;;;;;19.00;59.00;;;;;;5017722;28;20763;-52
2021/05/28 04:25:22;;;;;;;;;;;19.00;58.90;;;;;;5018644;28;19921;-54
2021/05/28 04:27:47;;;;;;;;;;;19.10;58.90;;;;;;5013904;28;19924;-55
2021/05/28 04:30:13;;;;;;;;;;;19.00;58.90;;;;;;5002332;28;19917;-56
2021/05/28 04:32:38;;;;;;;;;;;19.00;58.90;;;;;;5005850;28;19987;-54
2021/05/28 04:35:04;;;;;;;;;;;19.00;58.90;;;;;;5016405;28;19940;-55
2021/05/28 04:37:30;;;;;;;;;;;19.00;59.00;;;;;;5018113;28;19967;-53
2021/05/28 04:39:55;;;;;;;;;;;19.00;59.10;;;;;;5014079;28;19925;-55
2021/05/28 04:42:20;;;;;;;;;;;19.00;59.40;;;;;;5011805;28;20405;-56
2021/05/28 04:44:46;;;;;;;;;;;19.00;59.20;;;;;;5007165;28;19922;-53
2021/05/28 04:47:11;;;;;;;;;;;19.00;59.40;;;;;;5008125;28;19926;-55
2021/05/28 04:49:37;;;;;;;;;;;19.00;59.80;;;;;;5019487;28;20539;-53
2021/05/28 04:52:02;;;;;;;;;;;19.00;59.80;;;;;;5015123;28;20006;-53
2021/05/28 04:54:28;;;;;;;;;;;19.00;59.60;;;;;;5007708;28;19932;-54
2021/05/28 04:56:53;;;;;;;;;;;19.00;59.60;;;;;;5018947;28;19921;-55
2021/05/28 04:59:19;;;;;;;;;;;19.00;59.60;;;;;;5011763;28;19932;-53
2021/05/28 05:01:44;;;;;;;;;;;19.00;59.50;;;;;;5009971;28;19921;-56
2021/05/28 05:04:09;;;;;;;;;;;19.00;59.40;;;;;;5018322;28;19920;-56
2021/05/28 05:06:35;;;;;;;;;;;19.00;59.40;;;;;;5008893;28;20105;-56
2021/05/28 05:09:00;;;;;;;;;;;19.00;59.40;;;;;;5012215;28;19978;-56
2021/05/28 05:11:26;;;;;;;;;;;19.00;59.40;;;;;;5014079;28;19952;-54
2021/05/28 05:13:51;;;;;;;;;;;19.00;59.40;;;;;;5016945;28;19920;-55
2021/05/28 05:16:17;;;;;;;;;;;19.00;59.30;;;;;;5014029;28;19928;-54
2021/05/28 05:18:43;;;;;;;;;;;19.00;59.30;;;;;;5017189;28;19921;-52
2021/05/28 05:21:08;;;;;;;;;;;19.00;59.30;;;;;;5014443;28;19917;-52
2021/05/28 05:23:34;;;;;;;;;;;19.00;59.20;;;;;;5011781;28;20379;-54
2021/05/28 05:25:59;;;;;;;;;;;19.00;59.60;;;;;;5011877;28;19953;-54
2021/05/28 05:28:25;;;;;;;;;;;19.00;60.30;;;;;;5013186;28;19917;-54
2021/05/28 05:30:50;;;;;;;;;;;19.00;60.50;;;;;;5007593;28;19928;-54
2021/05/28 05:33:16;;;;;;;;;;;19.10;60.70;;;;;;5012618;28;19927;-56
2021/05/28 05:35:41;;;;;;;;;;;19.00;60.70;;;;;;4990019;28;20639;-54
2021/05/28 05:38:10;;;;;;;;;;;19.10;61.00;;;;;;5010002;28;20176;-55
2021/05/28 05:40:36;;;;;;;;;;;19.00;60.90;;;;;;5012435;28;19928;-55
2021/05/28 05:43:01;;;;;;;;;;;19.00;60.90;;;;;;5006867;28;19928;-54
2021/05/28 05:45:27;;;;;;;;;;;19.00;60.80;;;;;;5012634;28;19918;-54
2021/05/28 05:47:52;;;;;;;;;;;19.00;60.80;;;;;;5006258;28;19976;-52
2021/05/28 05:50:17;;;;;;;;;;;19.10;60.90;;;;;;5009167;28;20410;-56
2021/05/28 05:52:43;;;;;;;;;;;19.00;60.80;;;;;;5013972;28;19924;-54
2021/05/28 05:55:09;;;;;;;;;;;19.00;60.80;;;;;;5005490;28;19921;-55
2021/05/28 05:57:34;;;;;;;;;;;19.00;60.90;;;;;;5006518;28;19917;-54
2021/05/28 05:59:59;;;;;;;;;;;19.00;61.10;;;;;;5002474;28;19929;-54
2021/05/28 06:02:27;;;;;;;;;;;19.00;61.30;;;;;;5009142;28;19920;-54
2021/05/28 06:04:52;;;;;;;;;;;19.00;61.60;;;;;;5004097;28;19971;-55
2021/05/28 06:07:18;;;;;;;;;;;19.00;61.40;;;;;;5010448;28;19996;-55
2021/05/28 06:09:43;;;;;;;;;;;19.00;61.30;;;;;;5021486;28;19924;-56
2021/05/28 06:12:09;;;;;;;;;;;19.00;61.30;;;;;;5023006;28;20024;-51
2021/05/28 06:14:34;;;;;;;;;;;19.00;61.30;;;;;;5022583;28;19921;-54
2021/05/28 06:17:00;;;;;;;;;;;19.00;61.20;;;;;;5011563;28;19924;-56
2021/05/28 06:19:25;;;;;;;;;;;19.00;61.10;;;;;;5014277;28;19922;-55
2021/05/28 06:21:52;;;;;;;;;;;19.00;61.20;;;;;;5010801;28;20834;-54
2021/05/28 06:24:17;;;;;;;;;;;19.00;61.20;;;;;;5013032;28;19917;-55
2021/05/28 06:26:43;;;;;;;;;;;19.00;61.20;;;;;;5013642;28;19963;-56
2021/05/28 06:29:08;;;;;;;;;;;19.00;61.20;;;;;;5012245;28;19975;-56
2021/05/28 06:31:34;;;;;;;;;;;19.00;61.20;;;;;;5011568;28;19925;-54
2021/05/28 06:33:59;;;;;;;;;;;19.00;61.10;;;;;;5022706;28;19960;-56
2021/05/28 06:36:25;;;;;;;;;;;19.00;61.10;;;;;;5005181;28;19917;-57
2021/05/28 06:38:50;;;;;;;;;;;19.00;61.00;;;;;;5009253;28;19918;-56
2021/05/28 06:41:16;;;;;;;;;;;19.00;61.10;;;;;;4988515;28;19929;-56
2021/05/28 06:43:41;;;;;;;;;;;19.00;61.10;;;;;;5010692;28;19922;-63
2021/05/28 06:46:07;;;;;;;;;;;19.00;61.00;;;;;;5015145;28;19924;-57
2021/05/28 06:48:32;;;;;;;;;;;19.00;61.10;;;;;;5020164;28;20245;-56
2021/05/28 06:50:58;;;;;;;;;;;19.00;61.00;;;;;;5006123;28;19921;-57
2021/05/28 06:53:23;;;;;;;;;;;19.00;61.00;;;;;;5019079;28;19917;-54
2021/05/28 06:55:48;;;;;;;;;;;19.00;61.00;;;;;;5011866;28;19982;-54
2021/05/28 06:58:16;;;;;;;;;;;19.00;61.00;;;;;;5013990;28;19921;-52
2021/05/28 07:00:41;;;;;;;;;;;19.00;61.00;;;;;;5002520;28;20437;-54
2021/05/28 07:03:06;;;;;;;;;;;19.00;61.00;;;;;;5011020;28;20436;-55
2021/05/28 07:05:32;;;;;;;;;;;19.00;60.90;;;;;;5012891;28;20301;-55
2021/05/28 07:08:00;;;;;;;;;;;19.00;60.60;;;;;;5016159;28;19921;-56
2021/05/28 07:10:25;;;;;;;;;;;19.00;60.60;;;;;;5020400;28;19921;-58
2021/05/28 07:12:51;;;;;;;;;;;19.00;60.40;;;;;;5011261;28;19920;-57
2021/05/28 07:15:16;;;;;;;;;;;19.00;60.30;;;;;;5016613;28;19918;-54
2021/05/28 07:17:42;;;;;;;;;;;18.90;60.20;;;;;;5009340;28;19949;-56
2021/05/28 07:20:07;;;;;;;;;;;18.90;60.80;;;;;;4992707;28;19945;-56
2021/05/28 07:22:33;;;;;;;;;;;18.90;60.20;;;;;;5001334;28;20016;-57
2021/05/28 07:24:58;;;;;;;;;;;19.00;60.20;;;;;;5009651;28;19992;-54
2021/05/28 07:27:24;;;;;;;;;;;18.90;60.10;;;;;;5018280;28;19913;-55
2021/05/28 07:29:49;;;;;;;;;;;19.00;60.20;;;;;;4998814;28;20371;-56
2021/05/28 07:32:15;;;;;;;;;;;19.00;60.20;;;;;;5000300;28;19917;-56
2021/05/28 07:34:40;;;;;;;;;;;19.00;60.40;;;;;;5013131;28;19917;-54
2021/05/28 07:37:06;;;;;;;;;;;18.90;60.30;;;;;;5012100;28;20297;-56
2021/05/28 07:39:31;;;;;;;;;;;18.90;60.20;;;;;;5019947;28;19959;-57
2021/05/28 07:41:58;;;;;;;;;;;19.00;60.40;;;;;;5016339;28;20641;-55
2021/05/28 07:44:24;;;;;;;;;;;19.00;61.00;;;;;;5007118;28;19995;-57
2021/05/28 07:46:50;;;;;;;;;;;18.90;60.30;;;;;;5015496;28;19921;-53
2021/05/28 07:49:15;;;;;;;;;;;18.90;60.30;;;;;;5010761;28;19918;-56
2021/05/28 07:51:40;;;;;;;;;;;18.90;60.20;;;;;;5015347;28;19917;-55
2021/05/28 07:54:06;;;;;;;;;;;18.90;60.30;;;;;;5008460;28;20034;-54
2021/05/28 07:56:34;;;;;;;;;;;18.90;60.20;;;;;;5003870;28;19921;-55
2021/05/28 07:59:00;;;;;;;;;;;18.90;60.20;;;;;;5001677;28;19918;-53
2021/05/28 08:01:26;;;;;;;;;;;18.90;60.30;;;;;;5014914;28;19920;-56
2021/05/28 08:03:52;;;;;;;;;;;18.90;60.20;;;;;;5005778;28;19921;-55
2021/05/28 08:06:17;;;;;;;;;;;18.90;60.30;;;;;;4991329;28;19918;-56
2021/05/28 08:08:43;;;;;;;;;;;18.90;60.30;;;;;;5000412;28;19957;-53
2021/05/28 08:11:08;;;;;;;;;;;18.90;60.30;;;;;;5014185;28;20029;-58
2021/05/28 08:13:34;;;;;;;;;;;18.90;60.20;;;;;;5019906;28;19921;-54
2021/05/28 08:16:00;;;;;;;;;;;18.90;60.20;;;;;;5008226;28;19913;-56
2021/05/28 08:18:26;;;;;;;;;;;18.90;60.20;;;;;;4999940;28;19932;-57
2021/05/28 08:20:52;;;;;;;;;;;18.90;60.20;;;;;;5011696;28;20123;-54
2021/05/28 08:23:18;;;;;;;;;;;18.90;60.20;;;;;;5016414;28;19921;-57
2021/05/28 08:25:43;;;;;;;;;;;18.90;60.20;;;;;;5007865;28;19924;-55
2021/05/28 08:28:08;;;;;;;;;;;18.90;60.10;;;;;;5011205;28;19917;-54
2021/05/28 08:30:34;;;;;;;;;;;18.90;60.20;;;;;;5009096;28;20341;-55
2021/05/28 08:32:59;;;;;;;;;;;18.90;60.10;;;;;;5002784;28;19925;-54
2021/05/28 08:35:25;;;;;;;;;;;18.90;60.10;;;;;;5008319;28;20567;-54
2021/05/28 08:37:50;;;;;;;;;;;18.90;60.10;;;;;;5012442;28;19917;-56
2021/05/28 08:40:17;;;;;;;;;;;18.90;60.20;;;;;;5011549;28;19932;-56
2021/05/28 08:42:43;;;;;;;;;;;18.90;60.10;;;;;;5009287;28;20418;-57
2021/05/28 08:45:08;;;;;;;;;;;18.90;60.00;;;;;;5010183;28;19925;-57
2021/05/28 08:47:34;;;;;;;;;;;18.90;60.00;;;;;;5013929;28;19927;-55
2021/05/28 08:50:00;;;;;;;;;;;18.90;60.00;;;;;;5004466;28;19913;-57
2021/05/28 08:52:25;;;;;;;;;;;18.90;59.90;;;;;;5007431;28;20413;-56
2021/05/28 08:54:51;;;;;;;;;;;18.90;60.00;;;;;;5007441;28;19917;-57
2021/05/28 08:57:18;;;;;;;;;;;18.90;60.00;;;;;;5007447;28;20011;-53
2021/05/28 08:59:44;;;;;;;;;;;18.90;60.00;;;;;;5006786;28;20447;-54
2021/05/28 09:02:29;;;;;;;;;;;18.90;60.00;;;;;;4999425;28;20012;-53
2021/05/28 09:05:04;;;;;;;;;;;18.90;60.00;;;;;;5005008;28;20168;-55
2021/05/28 09:07:30;;;;;;;;;;;18.90;60.10;;;;;;5004074;28;19937;-55
2021/05/28 09:09:55;;;;;;;;;;;18.90;60.10;;;;;;5006877;28;20713;-55
2021/05/28 09:12:30;;;;;;;;;;;18.90;60.10;;;;;;5011548;28;19913;-56
2021/05/28 09:14:55;;;;;;;;;;;18.90;60.10;;;;;;5005033;28;19918;-53
2021/05/28 09:17:21;;;;;;;;;;;18.90;60.10;;;;;;5005000;28;19928;-57
2021/05/28 09:19:53;;;;;;;;;;;18.90;60.10;;;;;;5002895;28;20468;-55
2021/05/28 09:22:20;;;;;;;;;;;18.90;60.00;;;;;;5001437;28;20494;-52
2021/05/28 09:24:46;;;;;;;;;;;18.90;60.20;;;;;;5005280;28;19972;-53
2021/05/28 09:27:28;;;;;;;;;;;18.90;60.20;;;;;;5006484;28;20458;-53
2021/05/28 09:29:57;;;;;;;;;;;18.80;60.10;;;;;;5002338;28;20000;-56
2021/05/28 09:32:22;;;;;;;;;;;18.80;60.20;;;;;;5010024;28;19921;-56
2021/05/28 09:34:51;;;;;;;;;;;18.80;60.20;;;;;;5008651;28;19967;-56
2021/05/28 09:37:16;;;;;;;;;;;18.80;60.20;;;;;;5010346;28;20887;-56
2021/05/28 09:39:42;;;;;;;;;;;18.90;60.30;;;;;;5013454;28;20019;-56
2021/05/28 09:42:07;;;;;;;;;;;18.80;60.20;;;;;;5016044;28;19924;-56
2021/05/28 09:44:33;;;;;;;;;;;18.80;60.20;;;;;;5014967;28;20557;-54
2021/05/28 09:46:58;;;;;;;;;;;18.80;60.10;;;;;;5011119;28;19917;-57
2021/05/28 09:49:27;;;;;;;;;;;18.90;60.20;;;;;;5017335;28;19917;-56
2021/05/28 09:52:11;;;;;;;;;;;18.80;60.20;;;;;;5009264;28;20438;-55
2021/05/28 09:54:38;;;;;;;;;;;18.80;60.20;;;;;;5015541;28;20498;-56
2021/05/28 09:57:03;;;;;;;;;;;18.80;60.10;;;;;;5022802;28;20428;-54
2021/05/28 09:59:40;;;;;;;;;;;18.80;60.10;;;;;;5002035;28;19921;-53
2021/05/28 10:02:08;;;;;;;;;;;18.80;60.20;;;;;;5008769;28;19914;-55
2021/05/28 10:04:33;;;;;;;;;;;18.90;60.20;;;;;;5012055;28;20024;-54
2021/05/28 10:06:59;;;;;;;;;;;18.80;60.20;;;;;;5009841;28;19917;-54
2021/05/28 10:09:24;;;;;;;;;;;18.90;60.30;;;;;;5016379;28;19937;-56
2021/05/28 10:11:49;;;;;;;;;;;18.80;60.20;;;;;;5009430;28;19971;-56
2021/05/28 10:14:15;;;;;;;;;;;18.80;60.10;;;;;;5013294;28;20402;-56
2021/05/28 10:16:41;;;;;;;;;;;18.80;60.10;;;;;;5002369;28;19913;-55
2021/05/28 10:19:06;;;;;;;;;;;18.80;60.00;;;;;;4985412;22;20002;-60
2021/05/28 10:21:32;;;;;;;;;;;18.90;60.20;;;;;;4982476;28;20401;-59
2021/05/28 10:23:59;;;;;;;;;;;18.80;60.10;;;;;;4991658;28;20008;-60
2021/05/28 10:26:28;;;;;;;;;;;18.80;60.20;;;;;;4969133;28;19921;-59
2021/05/28 10:28:53;;;;;;;;;;;18.80;60.10;;;;;;4987709;28;19938;-58
2021/05/28 10:31:19;;;;;;;;;;;18.80;60.10;;;;;;4981211;28;19918;-59
2021/05/28 10:33:49;;;;;;;;;;;18.80;60.20;;;;;;4996982;28;20427;-60
2021/05/28 10:36:34;;;;;;;;;;;18.80;60.10;;;;;;5000708;28;20015;-60
2021/05/28 10:39:05;;;;;;;;;;;18.80;60.00;;;;;;4992980;28;20533;-59
2021/05/28 10:41:31;;;;;;;;;;;18.80;60.00;;;;;;4988862;28;20378;-59
2021/05/28 10:43:56;;;;;;;;;;;18.80;60.00;;;;;;4985420;28;19920;-60
2021/05/28 10:46:21;;;;;;;;;;;18.80;60.00;;;;;;4990768;28;19922;-59
2021/05/28 10:48:47;;;;;;;;;;;18.80;60.00;;;;;;4991403;28;19914;-64
2021/05/28 10:51:13;;;;;;;;;;;18.80;60.00;;;;;;4972010;28;20431;-59
2021/05/28 10:53:59;;;;;;;;;;;18.80;60.00;;;;;;4992042;28;19921;-60
2021/05/28 10:56:25;;;;;;;;;;;18.80;60.00;;;;;;4979657;28;20435;-60
2021/05/28 10:58:57;;;;;;;;;;;18.80;60.00;;;;;;4981616;28;19996;-58
2021/05/28 11:01:34;;;;;;;;;;;18.80;60.00;;;;;;4999612;28;19922;-59
2021/05/28 11:04:03;;;;;;;;;;;18.80;60.00;;;;;;4983480;28;19953;-56
2021/05/28 11:06:29;;;;;;;;;;;18.80;59.90;;;;;;4990781;28;20291;-57
2021/05/28 11:09:04;;;;;;;;;;;18.80;60.00;;;;;;4996848;28;19921;-57
2021/05/28 11:11:36;;;;;;;;;;;18.80;60.00;;;;;;4984498;28;19948;-59
2021/05/28 11:14:08;;;;;;;;;;;18.80;60.00;;;;;;4988897;28;19921;-57
2021/05/28 11:16:48;;;;;;;;;;;18.80;60.00;;;;;;4980948;28;20430;-59
2021/05/28 11:19:40;;;;;;;;;;;18.80;59.90;;;;;;4991065;28;20012;-60
2021/05/28 11:22:07;;;;;;;;;;;18.80;60.00;;;;;;4986711;28;19914;-59
2021/05/28 11:24:48;;;;;;;;;;;18.90;60.00;;;;;;4988871;28;20599;-58
2021/05/28 11:27:15;;;;;;;;;;;18.80;60.00;;;;;;4997016;28;19917;-60
2021/05/28 11:29:40;;;;;;;;;;;18.80;59.90;;;;;;4990644;28;19918;-55
2021/05/28 11:32:24;;;;;;;;;;;18.80;59.80;;;;;;4998739;28;20045;-60
2021/05/28 11:35:09;;;;;;;;;;;18.80;59.90;;;;;;4979857;28;20000;-55
2021/05/28 11:37:37;;;;;;;;;;;18.80;59.90;;;;;;4983652;28;19949;-57
2021/05/28 11:40:22;;;;;;;;;;;18.80;59.80;;;;;;4993064;28;20573;-55
2021/05/28 11:42:47;;;;;;;;;;;18.80;59.80;;;;;;4991298;28;19918;-60
2021/05/28 11:45:13;;;;;;;;;;;18.90;59.90;;;;;;4988490;28;19914;-57
2021/05/28 11:47:39;;;;;;;;;;;18.90;59.90;;;;;;4987896;28;20374;-56
2021/05/28 11:50:05;;;;;;;;;;;18.80;59.80;;;;;;4982221;28;19913;-57
2021/05/28 11:52:31;;;;;;;;;;;18.80;59.80;;;;;;4991322;28;19921;-55
2021/05/28 11:55:06;;;;;;;;;;;18.80;59.90;;;;;;4999308;28;19913;-56
2021/05/28 11:57:32;;;;;;;;;;;18.80;59.90;;;;;;4986492;28;19917;-60
2021/05/28 11:59:58;;;;;;;;;;;18.80;59.90;;;;;;4992403;28;19925;-56
2021/05/28 12:02:32;;;;;;;;;;;18.80;59.80;;;;;;4983465;28;19936;-56
2021/05/28 12:04:58;;;;;;;;;;;18.80;59.70;;;;;;4979868;28;20510;-55
2021/05/28 12:07:26;;;;;;;;;;;18.80;59.90;;;;;;4993931;28;20773;-53
2021/05/28 12:09:58;;;;;;;;;;;18.80;59.90;;;;;;4999217;28;20024;-57
2021/05/28 12:12:23;;;;;;;;;;;18.80;59.90;;;;;;4974140;28;19921;-57
2021/05/28 12:15:04;;;;;;;;;;;18.80;59.90;;;;;;4969259;28;20481;-56
2021/05/28 12:17:30;;;;;;;;;;;18.80;59.80;;;;;;4971259;28;19917;-56
2021/05/28 12:19:55;;;;;;;;;;;18.80;59.90;;;;;;4996513;28;20652;-57
2021/05/28 12:22:21;;;;;;;;;;;18.80;59.90;;;;;;4988119;28;19918;-57
2021/05/28 12:24:46;;;;;;;;;;;18.80;60.00;;;;;;4992867;28;20332;-60
2021/05/28 12:27:12;;;;;;;;;;;18.80;59.90;;;;;;4989553;28;19925;-60
2021/05/28 12:29:37;;;;;;;;;;;18.80;59.90;;;;;;4968824;28;19949;-59
2021/05/28 12:32:03;;;;;;;;;;;18.80;59.90;;;;;;4980496;28;19921;-59
2021/05/28 12:34:28;;;;;;;;;;;18.80;60.60;;;;;;4968231;28;20301;-60
2021/05/28 12:36:58;;;;;;;;;;;18.80;59.90;;;;;;4977942;28;19917;-60
2021/05/28 12:39:27;;;;;;;;;;;18.80;59.90;;;;;;4974832;28;20032;-58
2021/05/28 12:41:53;;;;;;;;;;;18.80;59.80;;;;;;4976272;28;19921;-59
2021/05/28 12:44:19;;;;;;;;;;;18.80;59.80;;;;;;4999007;28;19920;-59
2021/05/28 12:46:44;;;;;;;;;;;18.80;59.80;;;;;;4990826;28;20329;-57
2021/05/28 12:49:10;;;;;;;;;;;18.80;59.80;;;;;;4988390;28;19924;-59
2021/05/28 12:51:37;;;;;;;;;;;18.80;59.80;;;;;;4983134;28;20093;-57
2021/05/28 12:54:15;;;;;;;;;;;18.80;59.80;;;;;;4990291;28;19957;-57
2021/05/28 12:56:40;;;;;;;;;;;18.80;59.80;;;;;;4987925;28;19925;-58
2021/05/28 12:59:15;;;;;;;;;;;18.80;59.80;;;;;;4988544;28;19914;-56
2021/05/28 13:01:40;;;;;;;;;;;18.80;59.80;;;;;;4995934;28;20045;-60
2021/05/28 13:04:08;;;;;;;;;;;18.80;59.90;;;;;;4983362;28;19914;-58
2021/05/28 13:06:34;;;;;;;;;;;18.80;59.90;;;;;;4988014;28;19918;-56
2021/05/28 13:09:03;;;;;;;;;;;18.80;59.90;;;;;;4995751;28;19918;-60
2021/05/28 13:11:45;;;;;;;;;;;18.80;59.90;;;;;;4985924;28;19922;-56
2021/05/28 13:14:16;;;;;;;;;;;18.80;59.90;;;;;;4993960;28;19913;-56
2021/05/28 13:16:41;;;;;;;;;;;18.80;60.00;;;;;;4970973;28;19922;-57
2021/05/28 13:19:07;;;;;;;;;;;18.80;59.90;;;;;;4973907;28;19933;-60
2021/05/28 13:21:32;;;;;;;;;;;18.80;59.90;;;;;;4973751;28;19921;-59
2021/05/28 13:23:58;;;;;;;;;;;18.80;59.90;;;;;;4987919;28;19922;-58
2021/05/28 13:26:24;;;;;;;;;;;18.80;59.90;;;;;;5000129;28;19913;-60
2021/05/28 13:28:49;;;;;;;;;;;18.80;59.90;;;;;;5000542;28;19918;-59
2021/05/28 13:31:15;;;;;;;;;;;18.80;59.90;;;;;;4988364;28;20001;-59
2021/05/28 13:33:41;;;;;;;;;;;18.80;59.90;;;;;;4992660;28;20434;-58
2021/05/28 13:36:10;;;;;;;;;;;18.80;59.80;;;;;;4993561;28;19918;-61
2021/05/28 13:38:36;;;;;;;;;;;18.80;59.90;;;;;;4990829;28;19918;-54
2021/05/28 13:41:09;;;;;;;;;;;18.80;59.90;;;;;;4986452;28;20384;-54
2021/05/28 13:43:34;;;;;;;;;;;18.80;59.90;;;;;;4999120;28;20531;-56
2021/05/28 13:46:00;;;;;;;;;;;18.80;59.90;;;;;;4994169;28;20228;-58
2021/05/28 13:48:25;;;;;;;;;;;18.80;59.90;;;;;;4985959;28;19914;-58
2021/05/28 13:50:51;;;;;;;;;;;18.80;59.90;;;;;;4997529;28;19913;-58
2021/05/28 13:53:17;;;;;;;;;;;18.80;59.90;;;;;;4989338;28;19972;-60
2021/05/28 13:55:43;;;;;;;;;;;18.80;59.90;;;;;;4990157;28;20370;-59
2021/05/28 13:58:08;;;;;;;;;;;18.80;60.00;;;;;;4985967;28;20357;-57
2021/05/28 14:00:34;;;;;;;;;;;18.80;60.00;;;;;;4999307;28;19972;-57
2021/05/28 14:03:00;;;;;;;;;;;18.80;60.00;;;;;;4995617;28;20551;-60
2021/05/28 14:05:26;;;;;;;;;;;18.80;60.00;;;;;;4989189;28;19917;-59
2021/05/28 14:07:53;;;;;;;;;;;18.80;60.00;;;;;;4994688;28;20013;-59
2021/05/28 14:10:18;;;;;;;;;;;18.80;60.00;;;;;;4993795;28;20563;-60
2021/05/28 14:12:43;;;;;;;;;;;18.80;60.10;;;;;;4975996;28;19918;-59
2021/05/28 14:15:09;;;;;;;;;;;18.80;60.10;;;;;;5001563;28;20338;-58